sensor_id;sensor_type;location;lat;lon;timestamp;temperature;humidity
15916;DHT22;8057;47.830;-3.870;2023-04-06T00:03:47;10.80;99.90
15916;DHT22;8057;47.830;-3.870;2023-04-06T00:07:58;10.90;99.90
15916;DHT22;8057;47.830;-3.870;2023-04-06T00:12:07;10.90;99.90
15916;DHT22;8057;47.830;-3.870;2023-04-06T00:16:16;10.90;99.90
15916;DHT22;8057;47.830;-3.870;2023-04-06T00:20:25;11.00;99.90
15916;DHT22;8057;47.830;-3.870;2023-04-06T00:24:36;11.00;99.90
15916;DHT22;8057;47.830;-3.870;2023-04-06T00:28:45;11.00;99.90
15916;DHT22;8057;47.830;-3.870;2023-04-06T00:32:54;11.00;99.90
15916;DHT22;8057;47.830;-3.870;2023-04-06T00:37:03;11.00;99.90
15916;DHT22;8057;47.830;-3.870;2023-04-06T00:41:14;11.10;99.90
15916;DHT22;8057;47.830;-3.870;2023-04-06T00:45:22;11.00;99.90
15916;DHT22;8057;47.830;-3.870;2023-04-06T00:49:32;11.10;99.90
15916;DHT22;8057;47.830;-3.870;2023-04-06T00:53:41;11.10;99.90
15916;DHT22;8057;47.830;-3.870;2023-04-06T00:57:52;11.20;99.90
15916;DHT22;8057;47.830;-3.870;2023-04-06T01:02:01;11.20;99.90
15916;DHT22;8057;47.830;-3.870;2023-04-06T01:06:10;11.30;99.90
15916;DHT22;8057;47.830;-3.870;2023-04-06T01:10:25;11.30;99.90
15916;DHT22;8057;47.830;-3.870;2023-04-06T01:14:36;11.30;99.90
15916;DHT22;8057;47.830;-3.870;2023-04-06T01:18:45;11.30;99.90
15916;DHT22;8057;47.830;-3.870;2023-04-06T01:22:56;11.30;99.90
15916;DHT22;8057;47.830;-3.870;2023-04-06T01:27:05;11.30;99.90
15916;DHT22;8057;47.830;-3.870;2023-04-06T01:31:14;11.30;99.90
15916;DHT22;8057;47.830;-3.870;2023-04-06T01:35:25;11.30;99.90
15916;DHT22;8057;47.830;-3.870;2023-04-06T01:39:35;11.30;99.90
15916;DHT22;8057;47.830;-3.870;2023-04-06T01:43:46;11.30;99.90
15916;DHT22;8057;47.830;-3.870;2023-04-06T01:47:55;11.30;99.90
15916;DHT22;8057;47.830;-3.870;2023-04-06T01:52:04;11.40;99.90
15916;DHT22;8057;47.830;-3.870;2023-04-06T01:56:15;11.30;99.90
15916;DHT22;8057;47.830;-3.870;2023-04-06T02:00:24;11.40;99.90
15916;DHT22;8057;47.830;-3.870;2023-04-06T02:04:33;11.40;99.90
15916;DHT22;8057;47.830;-3.870;2023-04-06T02:08:42;11.40;99.90
15916;DHT22;8057;47.830;-3.870;2023-04-06T02:12:52;11.40;99.90
15916;DHT22;8057;47.830;-3.870;2023-04-06T02:17:01;11.40;99.90
15916;DHT22;8057;47.830;-3.870;2023-04-06T02:21:10;11.40;99.90
15916;DHT22;8057;47.830;-3.870;2023-04-06T02:25:19;11.50;99.90
15916;DHT22;8057;47.830;-3.870;2023-04-06T02:29:30;11.50;99.90
15916;DHT22;8057;47.830;-3.870;2023-04-06T02:33:39;11.50;99.90
15916;DHT22;8057;47.830;-3.870;2023-04-06T02:37:48;11.50;99.90
15916;DHT22;8057;47.830;-3.870;2023-04-06T02:41:57;11.50;99.90
15916;DHT22;8057;47.830;-3.870;2023-04-06T02:46:07;11.50;99.90
15916;DHT22;8057;47.830;-3.870;2023-04-06T02:50:16;11.50;99.90
15916;DHT22;8057;47.830;-3.870;2023-04-06T02:54:25;11.50;99.90
15916;DHT22;8057;47.830;-3.870;2023-04-06T02:58:34;11.50;99.90
15916;DHT22;8057;47.830;-3.870;2023-04-06T03:02:45;11.40;99.90
15916;DHT22;8057;47.830;-3.870;2023-04-06T03:06:54;11.40;99.90
15916;DHT22;8057;47.830;-3.870;2023-04-06T03:11:07;11.40;99.90
15916;DHT22;8057;47.830;-3.870;2023-04-06T03:15:16;11.40;99.90
15916;DHT22;8057;47.830;-3.870;2023-04-06T03:19:26;11.40;99.90
15916;DHT22;8057;47.830;-3.870;2023-04-06T03:23:35;11.40;99.90
15916;DHT22;8057;47.830;-3.870;2023-04-06T03:27:44;11.40;99.90
15916;DHT22;8057;47.830;-3.870;2023-04-06T03:31:53;11.50;99.90
15916;DHT22;8057;47.830;-3.870;2023-04-06T03:36:05;11.50;99.90
15916;DHT22;8057;47.830;-3.870;2023-04-06T03:40:14;11.50;99.90
15916;DHT22;8057;47.830;-3.870;2023-04-06T03:44:23;11.50;99.90
15916;DHT22;8057;47.830;-3.870;2023-04-06T03:48:32;11.50;99.90
15916;DHT22;8057;47.830;-3.870;2023-04-06T03:52:43;11.50;99.90
15916;DHT22;8057;47.830;-3.870;2023-04-06T03:56:52;11.50;99.90
15916;DHT22;8057;47.830;-3.870;2023-04-06T04:01:01;11.50;99.90
15916;DHT22;8057;47.830;-3.870;2023-04-06T04:05:10;11.60;99.90
15916;DHT22;8057;47.830;-3.870;2023-04-06T04:09:20;11.60;99.90
15916;DHT22;8057;47.830;-3.870;2023-04-06T04:13:29;11.60;99.90
15916;DHT22;8057;47.830;-3.870;2023-04-06T04:17:38;11.60;99.90
15916;DHT22;8057;47.830;-3.870;2023-04-06T04:21:50;11.60;99.90
15916;DHT22;8057;47.830;-3.870;2023-04-06T04:26:00;11.70;99.90
15916;DHT22;8057;47.830;-3.870;2023-04-06T04:30:10;11.70;99.90
15916;DHT22;8057;47.830;-3.870;2023-04-06T04:34:19;11.70;99.90
15916;DHT22;8057;47.830;-3.870;2023-04-06T04:38:31;11.70;99.90
15916;DHT22;8057;47.830;-3.870;2023-04-06T04:42:41;11.70;99.90
15916;DHT22;8057;47.830;-3.870;2023-04-06T04:46:50;11.70;99.90
15916;DHT22;8057;47.830;-3.870;2023-04-06T04:50:59;11.70;99.90
15916;DHT22;8057;47.830;-3.870;2023-04-06T04:55:08;11.80;99.90
15916;DHT22;8057;47.830;-3.870;2023-04-06T04:59:19;11.70;99.90
15916;DHT22;8057;47.830;-3.870;2023-04-06T05:03:28;11.70;99.90
15916;DHT22;8057;47.830;-3.870;2023-04-06T05:07:37;11.70;99.90
15916;DHT22;8057;47.830;-3.870;2023-04-06T05:11:46;11.80;99.90
15916;DHT22;8057;47.830;-3.870;2023-04-06T05:15:57;11.80;99.90
15916;DHT22;8057;47.830;-3.870;2023-04-06T05:20:07;11.80;99.90
15916;DHT22;8057;47.830;-3.870;2023-04-06T05:24:16;11.80;99.90
15916;DHT22;8057;47.830;-3.870;2023-04-06T05:28:25;11.80;99.90
15916;DHT22;8057;47.830;-3.870;2023-04-06T05:32:35;11.90;99.90
15916;DHT22;8057;47.830;-3.870;2023-04-06T05:36:45;11.80;99.90
15916;DHT22;8057;47.830;-3.870;2023-04-06T05:40:54;11.90;99.90
15916;DHT22;8057;47.830;-3.870;2023-04-06T05:45:03;11.90;99.90
15916;DHT22;8057;47.830;-3.870;2023-04-06T05:49:14;11.90;99.90
15916;DHT22;8057;47.830;-3.870;2023-04-06T05:53:23;12.00;99.90
15916;DHT22;8057;47.830;-3.870;2023-04-06T05:57:33;12.00;99.90
15916;DHT22;8057;47.830;-3.870;2023-04-06T06:01:42;12.00;99.90
15916;DHT22;8057;47.830;-3.870;2023-04-06T06:05:53;12.10;99.90
15916;DHT22;8057;47.830;-3.870;2023-04-06T06:10:02;12.10;99.90
15916;DHT22;8057;47.830;-3.870;2023-04-06T06:14:11;12.10;99.90
15916;DHT22;8057;47.830;-3.870;2023-04-06T06:18:20;12.10;99.90
15916;DHT22;8057;47.830;-3.870;2023-04-06T06:22:31;12.10;99.90
15916;DHT22;8057;47.830;-3.870;2023-04-06T06:26:40;12.10;99.90
15916;DHT22;8057;47.830;-3.870;2023-04-06T06:30:49;12.20;99.90
15916;DHT22;8057;47.830;-3.870;2023-04-06T06:34:58;12.20;99.90
15916;DHT22;8057;47.830;-3.870;2023-04-06T06:39:08;12.20;99.90
15916;DHT22;8057;47.830;-3.870;2023-04-06T06:43:18;12.20;99.90
15916;DHT22;8057;47.830;-3.870;2023-04-06T06:47:27;12.20;99.90
15916;DHT22;8057;47.830;-3.870;2023-04-06T06:51:36;12.20;99.90
15916;DHT22;8057;47.830;-3.870;2023-04-06T06:55:46;12.20;99.90
15916;DHT22;8057;47.830;-3.870;2023-04-06T06:59:56;12.30;99.90
15916;DHT22;8057;47.830;-3.870;2023-04-06T07:04:07;12.30;99.90
15916;DHT22;8057;47.830;-3.870;2023-04-06T07:08:17;12.30;99.90
15916;DHT22;8057;47.830;-3.870;2023-04-06T07:12:28;12.40;99.90
15916;DHT22;8057;47.830;-3.870;2023-04-06T07:16:37;12.40;99.90
15916;DHT22;8057;47.830;-3.870;2023-04-06T07:20:47;12.40;99.90
15916;DHT22;8057;47.830;-3.870;2023-04-06T07:24:58;12.40;99.90
15916;DHT22;8057;47.830;-3.870;2023-04-06T07:29:20;12.40;99.90
15916;DHT22;8057;47.830;-3.870;2023-04-06T07:33:33;12.50;99.90
15916;DHT22;8057;47.830;-3.870;2023-04-06T07:37:45;12.60;99.90
15916;DHT22;8057;47.830;-3.870;2023-04-06T07:41:55;12.60;99.90
15916;DHT22;8057;47.830;-3.870;2023-04-06T07:46:08;12.60;99.90
15916;DHT22;8057;47.830;-3.870;2023-04-06T07:50:18;12.60;99.90
15916;DHT22;8057;47.830;-3.870;2023-04-06T07:54:27;12.60;99.90
15916;DHT22;8057;47.830;-3.870;2023-04-06T07:58:37;12.60;99.90
15916;DHT22;8057;47.830;-3.870;2023-04-06T08:02:48;12.60;99.90
15916;DHT22;8057;47.830;-3.870;2023-04-06T08:06:58;12.70;99.90
15916;DHT22;8057;47.830;-3.870;2023-04-06T08:11:07;12.80;99.90
15916;DHT22;8057;47.830;-3.870;2023-04-06T08:15:17;12.80;99.90
15916;DHT22;8057;47.830;-3.870;2023-04-06T08:19:28;12.90;99.90
15916;DHT22;8057;47.830;-3.870;2023-04-06T08:23:40;13.00;99.90
15916;DHT22;8057;47.830;-3.870;2023-04-06T08:28:03;13.10;99.90
15916;DHT22;8057;47.830;-3.870;2023-04-06T08:32:14;13.20;99.90
15916;DHT22;8057;47.830;-3.870;2023-04-06T08:36:26;13.10;99.90
15916;DHT22;8057;47.830;-3.870;2023-04-06T08:40:37;13.10;99.90
15916;DHT22;8057;47.830;-3.870;2023-04-06T08:44:49;13.10;99.90
15916;DHT22;8057;47.830;-3.870;2023-04-06T08:49:02;12.80;99.90
15916;DHT22;8057;47.830;-3.870;2023-04-06T08:53:19;12.80;99.90
15916;DHT22;8057;47.830;-3.870;2023-04-06T08:57:31;12.70;99.90
15916;DHT22;8057;47.830;-3.870;2023-04-06T09:01:43;12.60;99.90
15916;DHT22;8057;47.830;-3.870;2023-04-06T09:05:54;12.60;99.90
15916;DHT22;8057;47.830;-3.870;2023-04-06T09:10:07;12.70;99.90
15916;DHT22;8057;47.830;-3.870;2023-04-06T09:14:17;12.80;99.90
15916;DHT22;8057;47.830;-3.870;2023-04-06T09:18:43;12.80;99.90
15916;DHT22;8057;47.830;-3.870;2023-04-06T09:22:55;12.90;99.90
15916;DHT22;8057;47.830;-3.870;2023-04-06T09:27:07;13.10;99.90
15916;DHT22;8057;47.830;-3.870;2023-04-06T09:31:23;13.30;99.90
15916;DHT22;8057;47.830;-3.870;2023-04-06T09:35:33;13.40;99.90
15916;DHT22;8057;47.830;-3.870;2023-04-06T09:39:42;13.40;99.90
15916;DHT22;8057;47.830;-3.870;2023-04-06T09:44:02;13.40;99.90
15916;DHT22;8057;47.830;-3.870;2023-04-06T09:48:12;13.50;99.90
15916;DHT22;8057;47.830;-3.870;2023-04-06T09:52:22;13.60;99.90
15916;DHT22;8057;47.830;-3.870;2023-04-06T09:56:38;13.60;99.90
15916;DHT22;8057;47.830;-3.870;2023-04-06T10:00:55;13.60;99.90
15916;DHT22;8057;47.830;-3.870;2023-04-06T10:05:09;13.60;99.90
15916;DHT22;8057;47.830;-3.870;2023-04-06T10:09:20;13.60;99.90
15916;DHT22;8057;47.830;-3.870;2023-04-06T10:13:32;13.60;99.90
15916;DHT22;8057;47.830;-3.870;2023-04-06T10:17:44;13.60;99.90
15916;DHT22;8057;47.830;-3.870;2023-04-06T10:21:55;13.70;99.90
15916;DHT22;8057;47.830;-3.870;2023-04-06T10:26:12;13.70;99.90
15916;DHT22;8057;47.830;-3.870;2023-04-06T10:30:24;13.50;99.90
15916;DHT22;8057;47.830;-3.870;2023-04-06T10:34:36;13.60;99.90
15916;DHT22;8057;47.830;-3.870;2023-04-06T10:38:45;13.90;99.90
15916;DHT22;8057;47.830;-3.870;2023-04-06T10:43:12;14.10;99.90
15916;DHT22;8057;47.830;-3.870;2023-04-06T10:47:23;14.50;99.90
15916;DHT22;8057;47.830;-3.870;2023-04-06T10:51:38;14.80;99.90
15916;DHT22;8057;47.830;-3.870;2023-04-06T10:55:49;15.20;99.90
15916;DHT22;8057;47.830;-3.870;2023-04-06T10:59:59;15.40;99.90
15916;DHT22;8057;47.830;-3.870;2023-04-06T11:04:09;15.90;99.90
15916;DHT22;8057;47.830;-3.870;2023-04-06T11:08:30;16.30;99.90
15916;DHT22;8057;47.830;-3.870;2023-04-06T11:12:41;16.40;99.90
15916;DHT22;8057;47.830;-3.870;2023-04-06T11:16:50;16.30;99.90
15916;DHT22;8057;47.830;-3.870;2023-04-06T11:21:01;16.30;99.90
15916;DHT22;8057;47.830;-3.870;2023-04-06T11:25:13;16.50;99.90
15916;DHT22;8057;47.830;-3.870;2023-04-06T11:29:26;16.90;99.90
15916;DHT22;8057;47.830;-3.870;2023-04-06T11:33:36;17.10;99.90
15916;DHT22;8057;47.830;-3.870;2023-04-06T11:37:47;16.90;99.90
15916;DHT22;8057;47.830;-3.870;2023-04-06T11:42:00;16.80;99.90
15916;DHT22;8057;47.830;-3.870;2023-04-06T11:46:18;16.80;99.90
15916;DHT22;8057;47.830;-3.870;2023-04-06T11:50:32;16.40;99.90
15916;DHT22;8057;47.830;-3.870;2023-04-06T11:54:43;16.30;99.90
15916;DHT22;8057;47.830;-3.870;2023-04-06T11:58:55;16.20;99.90
15916;DHT22;8057;47.830;-3.870;2023-04-06T12:03:04;16.30;99.90
15916;DHT22;8057;47.830;-3.870;2023-04-06T12:07:14;16.70;99.90
15916;DHT22;8057;47.830;-3.870;2023-04-06T12:11:23;16.80;99.90
15916;DHT22;8057;47.830;-3.870;2023-04-06T12:15:35;16.80;99.90
15916;DHT22;8057;47.830;-3.870;2023-04-06T12:19:45;16.90;99.90
15916;DHT22;8057;47.830;-3.870;2023-04-06T12:23:55;16.60;99.90
15916;DHT22;8057;47.830;-3.870;2023-04-06T12:28:04;16.50;99.90
15916;DHT22;8057;47.830;-3.870;2023-04-06T12:32:15;16.80;99.90
15916;DHT22;8057;47.830;-3.870;2023-04-06T12:36:25;16.90;99.90
15916;DHT22;8057;47.830;-3.870;2023-04-06T12:40:37;17.00;99.90
15916;DHT22;8057;47.830;-3.870;2023-04-06T12:44:47;17.10;99.90
15916;DHT22;8057;47.830;-3.870;2023-04-06T12:48:59;17.30;99.90
15916;DHT22;8057;47.830;-3.870;2023-04-06T12:53:09;17.10;99.90
15916;DHT22;8057;47.830;-3.870;2023-04-06T12:57:19;16.70;99.90
15916;DHT22;8057;47.830;-3.870;2023-04-06T13:01:29;16.30;99.90
15916;DHT22;8057;47.830;-3.870;2023-04-06T13:05:45;16.60;99.90
15916;DHT22;8057;47.830;-3.870;2023-04-06T13:09:54;16.70;99.90
15916;DHT22;8057;47.830;-3.870;2023-04-06T13:14:05;16.80;99.90
15916;DHT22;8057;47.830;-3.870;2023-04-06T13:18:14;17.10;99.90
15916;DHT22;8057;47.830;-3.870;2023-04-06T13:22:25;17.20;99.90
15916;DHT22;8057;47.830;-3.870;2023-04-06T13:26:34;17.30;99.90
15916;DHT22;8057;47.830;-3.870;2023-04-06T13:30:43;17.40;99.90
15916;DHT22;8057;47.830;-3.870;2023-04-06T13:34:56;17.40;99.90
15916;DHT22;8057;47.830;-3.870;2023-04-06T13:39:09;17.40;99.90
15916;DHT22;8057;47.830;-3.870;2023-04-06T13:43:19;17.50;99.90
15916;DHT22;8057;47.830;-3.870;2023-04-06T13:47:29;17.50;99.90
15916;DHT22;8057;47.830;-3.870;2023-04-06T13:51:40;17.60;99.90
15916;DHT22;8057;47.830;-3.870;2023-04-06T13:55:54;17.50;99.90
15916;DHT22;8057;47.830;-3.870;2023-04-06T14:00:05;17.50;99.90
15916;DHT22;8057;47.830;-3.870;2023-04-06T14:04:16;17.70;99.90
15916;DHT22;8057;47.830;-3.870;2023-04-06T14:08:25;17.80;99.90
15916;DHT22;8057;47.830;-3.870;2023-04-06T14:12:36;17.60;99.90
15916;DHT22;8057;47.830;-3.870;2023-04-06T14:16:45;17.40;99.90
15916;DHT22;8057;47.830;-3.870;2023-04-06T14:20:55;17.40;99.90
15916;DHT22;8057;47.830;-3.870;2023-04-06T14:25:05;17.40;99.90
15916;DHT22;8057;47.830;-3.870;2023-04-06T14:29:17;17.50;99.90
15916;DHT22;8057;47.830;-3.870;2023-04-06T14:33:26;17.50;99.90
15916;DHT22;8057;47.830;-3.870;2023-04-06T14:37:35;17.40;99.90
15916;DHT22;8057;47.830;-3.870;2023-04-06T14:41:46;17.60;99.90
15916;DHT22;8057;47.830;-3.870;2023-04-06T14:46:02;17.50;99.90
15916;DHT22;8057;47.830;-3.870;2023-04-06T14:50:14;17.60;99.90
15916;DHT22;8057;47.830;-3.870;2023-04-06T14:54:25;17.70;99.90
15916;DHT22;8057;47.830;-3.870;2023-04-06T14:58:34;17.80;99.90
15916;DHT22;8057;47.830;-3.870;2023-04-06T15:02:44;17.90;99.90
15916;DHT22;8057;47.830;-3.870;2023-04-06T15:06:54;17.90;99.90
15916;DHT22;8057;47.830;-3.870;2023-04-06T15:11:04;17.90;99.90
15916;DHT22;8057;47.830;-3.870;2023-04-06T15:15:14;18.00;99.90
15916;DHT22;8057;47.830;-3.870;2023-04-06T15:19:24;17.80;99.90
15916;DHT22;8057;47.830;-3.870;2023-04-06T15:23:34;17.70;99.90
15916;DHT22;8057;47.830;-3.870;2023-04-06T15:27:43;17.60;99.90
15916;DHT22;8057;47.830;-3.870;2023-04-06T15:31:52;17.60;99.90
15916;DHT22;8057;47.830;-3.870;2023-04-06T15:36:06;17.60;99.90
15916;DHT22;8057;47.830;-3.870;2023-04-06T15:40:16;17.70;99.90
15916;DHT22;8057;47.830;-3.870;2023-04-06T15:44:25;17.60;99.90
15916;DHT22;8057;47.830;-3.870;2023-04-06T15:48:34;17.50;99.90
15916;DHT22;8057;47.830;-3.870;2023-04-06T15:52:45;17.40;99.90
15916;DHT22;8057;47.830;-3.870;2023-04-06T15:56:54;17.10;99.90
15916;DHT22;8057;47.830;-3.870;2023-04-06T16:01:10;17.00;99.90
15916;DHT22;8057;47.830;-3.870;2023-04-06T16:05:20;16.80;99.90
15916;DHT22;8057;47.830;-3.870;2023-04-06T16:09:31;16.80;99.90
15916;DHT22;8057;47.830;-3.870;2023-04-06T16:13:42;16.70;99.90
15916;DHT22;8057;47.830;-3.870;2023-04-06T16:18:00;16.60;99.90
15916;DHT22;8057;47.830;-3.870;2023-04-06T16:22:10;16.70;99.90
15916;DHT22;8057;47.830;-3.870;2023-04-06T16:26:21;16.80;99.90
15916;DHT22;8057;47.830;-3.870;2023-04-06T16:30:30;16.80;99.90
15916;DHT22;8057;47.830;-3.870;2023-04-06T16:34:39;16.80;99.90
15916;DHT22;8057;47.830;-3.870;2023-04-06T16:38:48;16.60;99.90
15916;DHT22;8057;47.830;-3.870;2023-04-06T16:42:58;16.40;99.90
15916;DHT22;8057;47.830;-3.870;2023-04-06T16:47:07;16.40;99.90
15916;DHT22;8057;47.830;-3.870;2023-04-06T16:51:17;16.30;99.90
15916;DHT22;8057;47.830;-3.870;2023-04-06T16:55:28;16.20;99.90
15916;DHT22;8057;47.830;-3.870;2023-04-06T16:59:39;16.20;99.90
15916;DHT22;8057;47.830;-3.870;2023-04-06T17:03:48;16.10;99.90
15916;DHT22;8057;47.830;-3.870;2023-04-06T17:07:58;16.10;99.90
15916;DHT22;8057;47.830;-3.870;2023-04-06T17:12:07;16.00;99.90
15916;DHT22;8057;47.830;-3.870;2023-04-06T17:16:17;15.90;99.90
15916;DHT22;8057;47.830;-3.870;2023-04-06T17:20:27;15.90;99.90
15916;DHT22;8057;47.830;-3.870;2023-04-06T17:24:36;15.80;99.90
15916;DHT22;8057;47.830;-3.870;2023-04-06T17:28:46;15.50;99.90
15916;DHT22;8057;47.830;-3.870;2023-04-06T17:32:58;15.40;99.90
15916;DHT22;8057;47.830;-3.870;2023-04-06T17:37:08;15.40;99.90
15916;DHT22;8057;47.830;-3.870;2023-04-06T17:41:18;15.20;99.90
15916;DHT22;8057;47.830;-3.870;2023-04-06T17:45:28;14.90;99.90
15916;DHT22;8057;47.830;-3.870;2023-04-06T17:49:39;14.80;99.90
15916;DHT22;8057;47.830;-3.870;2023-04-06T17:53:49;14.70;99.90
15916;DHT22;8057;47.830;-3.870;2023-04-06T17:58:00;14.50;99.90
15916;DHT22;8057;47.830;-3.870;2023-04-06T18:02:09;14.40;99.90
15916;DHT22;8057;47.830;-3.870;2023-04-06T18:06:20;14.20;99.90
15916;DHT22;8057;47.830;-3.870;2023-04-06T18:10:35;14.00;99.90
15916;DHT22;8057;47.830;-3.870;2023-04-06T18:14:44;13.80;99.90
15916;DHT22;8057;47.830;-3.870;2023-04-06T18:18:54;13.60;99.90
15916;DHT22;8057;47.830;-3.870;2023-04-06T18:23:05;13.50;99.90
15916;DHT22;8057;47.830;-3.870;2023-04-06T18:27:15;13.30;99.90
15916;DHT22;8057;47.830;-3.870;2023-04-06T18:31:25;13.20;99.90
15916;DHT22;8057;47.830;-3.870;2023-04-06T18:35:35;13.10;99.90
15916;DHT22;8057;47.830;-3.870;2023-04-06T18:39:46;13.00;99.90
15916;DHT22;8057;47.830;-3.870;2023-04-06T18:43:55;12.90;99.90
15916;DHT22;8057;47.830;-3.870;2023-04-06T18:48:05;12.70;99.90
15916;DHT22;8057;47.830;-3.870;2023-04-06T18:52:15;12.60;99.90
15916;DHT22;8057;47.830;-3.870;2023-04-06T18:56:25;12.50;99.90
15916;DHT22;8057;47.830;-3.870;2023-04-06T19:00:34;12.40;99.90
15916;DHT22;8057;47.830;-3.870;2023-04-06T19:04:44;12.30;99.90
15916;DHT22;8057;47.830;-3.870;2023-04-06T19:08:53;12.20;99.90
15916;DHT22;8057;47.830;-3.870;2023-04-06T19:13:04;12.10;99.90
15916;DHT22;8057;47.830;-3.870;2023-04-06T19:17:14;12.00;99.90
15916;DHT22;8057;47.830;-3.870;2023-04-06T19:21:24;11.90;99.90
15916;DHT22;8057;47.830;-3.870;2023-04-06T19:25:34;11.80;99.90
15916;DHT22;8057;47.830;-3.870;2023-04-06T19:29:45;11.80;99.90
15916;DHT22;8057;47.830;-3.870;2023-04-06T19:33:54;11.70;99.90
15916;DHT22;8057;47.830;-3.870;2023-04-06T19:38:03;11.50;99.90
15916;DHT22;8057;47.830;-3.870;2023-04-06T19:42:12;11.50;99.90
15916;DHT22;8057;47.830;-3.870;2023-04-06T19:46:23;11.50;99.90
15916;DHT22;8057;47.830;-3.870;2023-04-06T19:50:33;11.40;99.90
15916;DHT22;8057;47.830;-3.870;2023-04-06T19:54:42;11.20;99.90
15916;DHT22;8057;47.830;-3.870;2023-04-06T19:58:53;11.20;99.90
15916;DHT22;8057;47.830;-3.870;2023-04-06T20:03:04;11.10;99.90
15916;DHT22;8057;47.830;-3.870;2023-04-06T20:07:14;11.10;99.90
15916;DHT22;8057;47.830;-3.870;2023-04-06T20:11:22;11.00;99.90
15916;DHT22;8057;47.830;-3.870;2023-04-06T20:15:31;11.00;99.90
15916;DHT22;8057;47.830;-3.870;2023-04-06T20:19:42;10.80;99.90
15916;DHT22;8057;47.830;-3.870;2023-04-06T20:23:51;10.70;99.90
15916;DHT22;8057;47.830;-3.870;2023-04-06T20:27:59;10.60;99.90
15916;DHT22;8057;47.830;-3.870;2023-04-06T20:32:09;10.50;99.90
15916;DHT22;8057;47.830;-3.870;2023-04-06T20:36:20;10.50;99.90
15916;DHT22;8057;47.830;-3.870;2023-04-06T20:40:29;10.40;99.90
15916;DHT22;8057;47.830;-3.870;2023-04-06T20:44:38;10.30;99.90
15916;DHT22;8057;47.830;-3.870;2023-04-06T20:48:47;10.30;99.90
15916;DHT22;8057;47.830;-3.870;2023-04-06T20:52:57;10.20;99.90
15916;DHT22;8057;47.830;-3.870;2023-04-06T20:57:06;10.10;99.90
15916;DHT22;8057;47.830;-3.870;2023-04-06T21:01:16;10.10;99.90
15916;DHT22;8057;47.830;-3.870;2023-04-06T21:05:25;10.00;99.90
15916;DHT22;8057;47.830;-3.870;2023-04-06T21:09:36;9.90;99.90
15916;DHT22;8057;47.830;-3.870;2023-04-06T21:13:45;9.80;99.90
15916;DHT22;8057;47.830;-3.870;2023-04-06T21:17:55;9.70;99.90
15916;DHT22;8057;47.830;-3.870;2023-04-06T21:22:05;9.70;99.90
15916;DHT22;8057;47.830;-3.870;2023-04-06T21:26:19;9.60;99.90
15916;DHT22;8057;47.830;-3.870;2023-04-06T21:30:30;9.60;99.90
15916;DHT22;8057;47.830;-3.870;2023-04-06T21:34:43;9.60;99.90
15916;DHT22;8057;47.830;-3.870;2023-04-06T21:38:52;9.60;99.90
15916;DHT22;8057;47.830;-3.870;2023-04-06T21:43:03;9.50;99.90
15916;DHT22;8057;47.830;-3.870;2023-04-06T21:47:12;9.50;99.90
15916;DHT22;8057;47.830;-3.870;2023-04-06T21:51:22;9.50;99.90
15916;DHT22;8057;47.830;-3.870;2023-04-06T21:55:31;9.40;99.90
15916;DHT22;8057;47.830;-3.870;2023-04-06T21:59:41;9.30;99.90
15916;DHT22;8057;47.830;-3.870;2023-04-06T22:03:50;9.20;99.90
15916;DHT22;8057;47.830;-3.870;2023-04-06T22:07:59;9.20;99.90
15916;DHT22;8057;47.830;-3.870;2023-04-06T22:12:09;9.10;99.90
15916;DHT22;8057;47.830;-3.870;2023-04-06T22:16:20;9.10;99.90
15916;DHT22;8057;47.830;-3.870;2023-04-06T22:20:29;9.10;99.90
15916;DHT22;8057;47.830;-3.870;2023-04-06T22:24:38;9.10;99.90
15916;DHT22;8057;47.830;-3.870;2023-04-06T22:28:47;9.00;99.90
15916;DHT22;8057;47.830;-3.870;2023-04-06T22:32:57;9.00;99.90
15916;DHT22;8057;47.830;-3.870;2023-04-06T22:37:06;8.90;99.90
15916;DHT22;8057;47.830;-3.870;2023-04-06T22:41:15;8.80;99.90
15916;DHT22;8057;47.830;-3.870;2023-04-06T22:45:24;8.70;99.90
15916;DHT22;8057;47.830;-3.870;2023-04-06T22:49:35;8.70;99.90
15916;DHT22;8057;47.830;-3.870;2023-04-06T22:53:44;8.70;99.90
15916;DHT22;8057;47.830;-3.870;2023-04-06T22:57:53;8.60;99.90
15916;DHT22;8057;47.830;-3.870;2023-04-06T23:02:02;8.50;99.90
15916;DHT22;8057;47.830;-3.870;2023-04-06T23:06:16;8.50;99.90
15916;DHT22;8057;47.830;-3.870;2023-04-06T23:10:27;8.50;99.90
15916;DHT22;8057;47.830;-3.870;2023-04-06T23:14:36;8.50;99.90
15916;DHT22;8057;47.830;-3.870;2023-04-06T23:18:45;8.50;99.90
15916;DHT22;8057;47.830;-3.870;2023-04-06T23:22:55;8.40;99.90
15916;DHT22;8057;47.830;-3.870;2023-04-06T23:27:04;8.30;99.90
15916;DHT22;8057;47.830;-3.870;2023-04-06T23:31:13;8.30;99.90
15916;DHT22;8057;47.830;-3.870;2023-04-06T23:35:22;8.40;99.90
15916;DHT22;8057;47.830;-3.870;2023-04-06T23:39:33;8.30;99.90
15916;DHT22;8057;47.830;-3.870;2023-04-06T23:43:42;8.10;99.90
15916;DHT22;8057;47.830;-3.870;2023-04-06T23:47:51;8.00;99.90
15916;DHT22;8057;47.830;-3.870;2023-04-06T23:52:00;8.00;99.90
15916;DHT22;8057;47.830;-3.870;2023-04-06T23:56:11;8.00;99.90
